Florida AWOS List, Phone Numbers

USA |  
| Search AWOS

Rocky Mountain States: Montana | Wyoming | Colorado | New Mexico

Complete weather reports: Florida

Legend: KFNL = METAR available Follow your local AWOS on AV Mobile = METAR available on AV Mobile
Station Florida Location Frequency Phone
KAQQICAO ID KAQQ Apalachicola, Apalachicola
KAAFFAA ID AAF, ASOS, KAAF 230953Z AUTO 13012G20KT 8SM SCT009 BKN012 OVC021 21/19 A2990 Follow KAAF on AV Mobile APALACHICOLA MUNICIPAL AIRPORT 119.925 850-653-8271
KNAEICAO ID KNAE Astor, Bombing Range Detachment Astor
KAVOFAA ID AVO, AWOS-3 AVON PARK 118.725 863-453-4223
KAGRFAA ID AGR Avon Park Gunnery Range
KBOWFAA ID BOW, AWOS-3, KBOW 231015Z AUTO 13005KT 9SM OVC005 21/ A3001 RMK AO2 Follow KBOW on AV Mobile Bartow Municipal 123.775 863-533-9004
F95FAA ID F95, AWOS-AV, KTEX 231040Z AUTO 26010G19KT 3SM -SN SCT005 BKN014 OVC026 M03/M04 A2984 RMK AO2 T10261044 Follow  on AV Mobile BLOUNTSTOWN 119.350 850-674-1347
KBCTFAA ID BCT, AWOS-3, KBCT 230353Z 13021G30KT 6SM -RA BKN014 BKN021 OVC029 24/22 A3009 RMK LAST Follow KBCT on AV Mobile Boca Raton, Boca Raton Airport 121.125 561-391-2696
K1J0FAA ID 1J0, K1J0 231006Z AUTO 13005KT 3SM BR BKN004 OVC011 17/17 A2992 RMK AO2 T01670167 PNO $ Follow K1J0 on AV Mobile TRI COUNTY AIRPORT
KBKVFAA ID BKV, ASOS, KBKV 230953Z 15008G16KT 10SM OVC009 22/21 A3000 RMK AO2 SLP156 T02170206 Follow KBKV on AV Mobile BROOKSVILLE HERNANDO CO AIRPORT 134.725 352-799-5881
K1J4ICAO ID K1J4 Cape San Blas Coast Guard Station
KNZCICAO ID KNZC Cecil, Naval Air Station
2ISFAA ID 2IS, AWOS-3, KTEX 231040Z AUTO 26010G19KT 3SM -SN SCT005 BKN014 OVC026 M03/M04 A2984 RMK AO2 T10261044 Follow  on AV Mobile CLEWISTON 124.175 863-983-7020
KX53ICAO ID KX53 Clewiston
KCOFFAA ID COF, KCOF 230958Z AUTO 14016KT 10SM CLR 23/22 A3001 RMK AO2 DZE0931 SLP167 P0002 T02270217 Follow KCOF on AV Mobile Cocoa / Patrick Air Force Base
KXMRFAA ID XMR, KXMR 231013Z AUTO 10012KT 10SM SCT022 OVC034 22/19 A3016 RMK AO2 Follow KXMR on AV Mobile Cocoa Beach, Cape Canaveral Air Force Station Skid Strip
KCEWFAA ID CEW, ASOS, KCEW 231019Z AUTO 11006KT 4SM BR OVC003 18/18 A2987 Follow KCEW on AV Mobile CRESTVIEW SIKES AIRPORT 119.275 850-682-1237
KEGIFAA ID EGI, KEGI 231008Z AUTO 12008G17KT 7SM OVC004 19/18 A2986 RMK AO2 $ Follow KEGI on AV Mobile Duke Field / Eglin Auxiliary
KCTYFAA ID CTY, KCTY 230953Z AUTO 12004KT 20/20 A2996 Follow KCTY on AV Mobile CROSS CITY AIRPORT
KCGCFAA ID CGC, AWOS-3, KCGC 231015Z AUTO 14005KT 10SM OVC010 22/20 A2997 RMK AO2 Follow KCGC on AV Mobile CRYSTAL RIVER 118.325 352-563-6600
KDABFAA ID DAB, ASOS, KDAB 231025Z 18006KT 3SM -RA BR BKN011 OVC018 22/21 A3001 Follow KDAB on AV Mobile DAYTONA BEACH INTERNATIONAL 386-253-7469
54JFAA ID 54J, AWOS-3P, KTEX 231040Z AUTO 26010G19KT 3SM -SN SCT005 BKN014 OVC026 M03/M04 A2984 RMK AO2 T10261044 Follow  on AV Mobile DEFUNIAK SPRINGS 118.725 850-892-0147
KDEDFAA ID DED, AWOS-3, KDED 231015Z AUTO 16008KT 3SM BKN005 OVC010 21/20 A3002 RMK AO1 P0001 Follow KDED on AV Mobile DELAND 119.575 386-740-5811
KDTSFAA ID DTS, ASOS, KDTS 230953Z AUTO 12015G21KT 5SM BR OVC004 20/19 A2985 RMK AO2 SLP109 T02000189 TSNO Follow KDTS on AV Mobile DESTIN-FT WALTON BEACH AIRPORT 133.925 850-654-7128
KX91ICAO ID KX91 Egmont Key Coast Guard Station
KFHBFAA ID FHB, AWOS-3, KFHB 231015Z AUTO 11008KT 3SM SCT009 BKN021 OVC029 22/20 A3000 RMK AO1 Follow KFHB on AV Mobile FERNANDINA BEACH 118.075 904-277-7323
KFXEFAA ID FXE, ASOS, KFXE 230953Z 12012KT 10SM SCT017 SCT024 25/22 A3001 Follow KFXE on AV Mobile FORT LAUDERDALE EXECUTIVE 954-772-2537
KFLLFAA ID FLL, ASOS, KFLL 230953Z 12017KT 10SM FEW020 SCT039 26/21 A3001 Follow KFLL on AV Mobile FORT LAUDERDALE/HOLLYWOOD 954-359-7857
KFMYFAA ID FMY, ASOS, KFMY 231007Z AUTO 12007KT 6SM BR BKN004 OVC016 22/21 A2998 RMK AO2 T02170211 Follow KFMY on AV Mobile FORT MYERS PAGE FIELD 239-936-2318
KRSWFAA ID RSW, ASOS, KRSW 230948Z AUTO 12004KT 5SM BR BKN004 OVC018 21/21 A3000 Follow KRSW on AV Mobile FORT MYERS SW FL INTERNATIONAL AIRPORT 239-561-0966
KX82ICAO ID KX82 Fort Pierce Coast Guard Station
KFPRFAA ID FPR, ASOS, KFPR 231003Z AUTO 13016KT 10SM FEW019 SCT023 BKN050 23/22 A3001 Follow KFPR on AV Mobile FORT PIERCE ST LUCIE 772-489-4281
KX86ICAO ID KX86 Fowey Rocks Coast Guard Station
KX89ICAO ID KX89 Ft. Myers Beach Coast Guard Station
KGNVFAA ID GNV, ASOS, KGNV 230953Z AUTO 13006KT 8SM -RA OVC007 19/19 A3000 Follow KGNV on AV Mobile GAINESVILLE REGIONAL AIRPORT 352-335-8672
KHWOFAA ID HWO, ASOS, KHWO 230953Z AUTO 12011KT 10SM FEW018 SCT034 25/22 A3002 RMK AO2 SLP166 T02500222 Follow KHWO on AV Mobile HOLLYWOOD NORTH PERRY AIRPORT 954-983-5904
X51FAA ID X51, AWOS-3, KTEX 231040Z AUTO 26010G19KT 3SM -SN SCT005 BKN014 OVC026 M03/M04 A2984 RMK AO2 T10261044 Follow  on AV Mobile HOMESTEAD 118.375 (305) 247-2791
KHSTFAA ID HST, KHST 230958Z AUTO 11006KT 10SM CLR 25/22 A3000 RMK AO2 SLP162 T02460223 $ Follow KHST on AV Mobile Homestead Air Force Base
KIMMFAA ID IMM, AWOS-3, KIMM 231035Z AUTO 13005KT 4SM CLR 21/ A3001 RMK A01 P000 Follow KIMM on AV Mobile IMMOKALEE 118.525 239-657-2038
KINFFAA ID INF, AWOS-3, KINF 231015Z AUTO 16006KT 10SM OVC008 21/20 A2999 RMK AO2 LTG DSNT NE Follow KINF on AV Mobile INVERNESS 119.975 352-341-0264
KX84ICAO ID KX84 Islamorada Coast Guard Station
KHEGFAA ID HEG, AWOS-3 JACKSONVILLE 119.275 904-695-0334
KCRGFAA ID CRG, ASOS, KCRG 231021Z AUTO 17004KT 1 1/4SM +RA BR BKN006 OVC010 21/20 A3001 RMK AO2 P0045 T02060200 Follow KCRG on AV Mobile JACKSONVILLE CRAIG MUN 904-646-4670
KJAXFAA ID JAX, ASOS, KJAX 231008Z 17005KT 1 1/4SM +RA BR BKN007 OVC011 20/20 A3001 Follow KJAX on AV Mobile JACKSONVILLE INTERNATIONAL 904-741-4304
KNIPFAA ID NIP, KNIP 231001Z 14010KT 5SM +RA BR SCT007 BKN015 OVC024 21/19 A3001 RMK AO2 TSE01 T1 SET P0004 T02110194 $ Follow KNIP on AV Mobile JACKSONVILLE NAVAL AIR STN
KVQQFAA ID VQQ, AWOS-3, KVQQ 231015Z AUTO 13004KT 3SM -RA BKN008 OVC012 20/19 A3001 RMK AO2 LTG DSNT SE VSBY 2V4 Follow KVQQ on AV Mobile Jacksonville, Cecil Field Airport 125.275 904-778-6934
KNENFAA ID NEN NOLF WHITEHOUSE FIELD, FL
KX80ICAO ID KX80 Jupiter Inlet Coast Guard Station
KEYWFAA ID EYW, ASOS, KEYW 231024Z AUTO 13012KT 10SM BKN026 26/26 A2997 Follow KEYW on AV Mobile KEY WEST INTERNATIONAL AIRPORT 119.65 305-292-4046
KNQXFAA ID NQX, KNQX 231015Z AUTO 13012KT 10SM BKN024 BKN030 24/23 A2996 RMK AO2 T02440228 TSNO $ Follow KNQX on AV Mobile KEY WEST NAVAL AIR STATION
K42JFAA ID 42J, AWOS-3, K42J 231015Z AUTO 16005KT 5SM FEW001 OVC010 20/20 A3000 RMK AO1 P0001 TSNO Follow K42J on AV Mobile KEYSTONE HEIGHTS 124.275 352-473-8273
KLCQFAA ID LCQ, AWOS-3, KLCQ 231015Z AUTO 12007KT 10SM -RA OVC004 19/19 A2999 RMK AO2 P0001 Follow KLCQ on AV Mobile LAKE CITY 120.675 386-754-9366
X07FAA ID X07, AWOS-3, KTEX 231040Z AUTO 26010G19KT 3SM -SN SCT005 BKN014 OVC026 M03/M04 A2984 RMK AO2 T10261044 Follow  on AV Mobile LAKE WALES 124.225 863-678-1334
KX81ICAO ID KX81 Lake Worth Inlet
KLALFAA ID LAL, AWOS-3PT, KLAL 230935Z AUTO 13006KT 7SM OVC007 21/20 A3001 RMK AO2 Follow KLAL on AV Mobile Lakeland Regional 118.025 863-834-2030
KLEEFAA ID LEE, ASOS, KLEE 231014Z AUTO 14007KT 10SM OVC009 21/20 A3001 RMK AO2 CIG 005V013 T02060200 Follow KLEE on AV Mobile LEESBURG REGIONAL AIRPORT 134.325 352-787-1565
24JFAA ID 24J, AWOS-3, KTEX 231040Z AUTO 26010G19KT 3SM -SN SCT005 BKN014 OVC026 M03/M04 A2984 RMK AO2 T10261044 Follow  on AV Mobile LIVE OAK 118.225 386-362-1731
KX88ICAO ID KX88 Marathon Coast Guard Station
KMTHFAA ID MTH, ASOS, KMTH 230953Z AUTO 12008KT 10SM FEW022 25/24 A2997 RMK AO2 SLP148 T02500239 Follow KMTH on AV Mobile MARATHON AIRPORT 135.525 305-743-8373
KMKYFAA ID MKY, AWOS-3, KMKY 231015Z AUTO 10006KT 7SM CLR 21/21 A2998 RMK AO1 Follow KMKY on AV Mobile MARCO ISLAND 120.075 239-394-8187
KMAIFAA ID MAI, ASOS, KMAI 230953Z AUTO 09006KT 6SM -RA BR OVC005 17/17 A2992 RMK AO2 RAB06 SLP129 P0000 T01720172 $ Follow KMAI on AV Mobile MARIANNA MUNICIPAL AIRPORT 133.525 850-482-6082
KHRTFAA ID HRT, KHRT 231013Z AUTO 12013G21KT 5SM R36/4500FT BR OVC003 19/17 A2983 RMK AO2 $ Follow KHRT on AV Mobile Hurlburt Field
KNRBFAA ID NRB, KNRB 231023Z AUTO VRB05G21KT 3SM -RA BR BKN004 OVC009 20/19 A3001 RMK AO2 PRESRR P0023 T02000194 $ Follow KNRB on AV Mobile MAYPORT NAVAL AIR FACILITY
KMLBFAA ID MLB, ASOS, KMLB 231006Z AUTO 14013KT 10SM SCT012 BKN035 OVC055 23/22 A3001 Follow KMLB on AV Mobile MELBOURNE INTERNATIONAL 321-723-7403
KCOIFAA ID COI, AWOS-3 Merritt Island, Merritt Island Airport 119.025 321-986-8864
KTNTFAA ID TNT, AWOS-3 MIAMI 119.075 (239) 695-9198
KX87ICAO ID KX87 Miami Beach Coast Guard Station
KAMXICAO ID KAMX Miami Nexrad
KTMBFAA ID TMB, ASOS, KTMB 230953Z AUTO 12009KT 10SM FEW019 BKN029 24/22 A3001 Follow KTMB on AV Mobile KENDALL-TAMIAMI EXEC AIRPORT 305-235-1332
KMIAFAA ID MIA, ASOS, KMIA 230953Z 12009KT 10SM FEW019 SCT025 25/22 A3001 Follow KMIA on AV Mobile MIAMI INTERNATIONAL AIRPORT 305-870-0235
KOPFFAA ID OPF, KOPF 231007Z AUTO 12010KT 10SM SCT018 BKN028 BKN035 25/22 A3001 Follow KOPF on AV Mobile MIAMI OPA LOCKA AIRPORT
KNFJFAA ID NFJ CHOCTAW, WHITING FIELD, NOLF
KNSEFAA ID NSE, KNSE 231021Z AUTO 11010G17KT 10SM OVC003 19/18 A2985 RMK AO2 T01890183 $ Follow KNSE on AV Mobile MILTON WHITING FIELD (NORTH)
KNDZFAA ID NDZ, KNDZ 231017Z AUTO 12014KT 7SM OVC004 21/18 A2985 RMK AO2 T02060183 $ Follow KNDZ on AV Mobile MILTON WHITING FIELD (SOUTH)
KAPFFAA ID APF, ASOS, KAPF 230953Z AUTO 11006KT 9SM OVC023 22/22 A2999 Follow KAPF on AV Mobile NAPLES MUNICIPAL AIRPORT 239-643-9886
KRRFICAO ID KRRF New Port Richey, Tampa Bay Executive Airport
KEVBFAA ID EVB, AWOS-3, KEVB 222347Z 10011G16KT 10SM OVC035 22/18 A3018 Follow KEVB on AV Mobile New Smyrna Beach, New Smyrna Beach Municipal Airport 124.625 386-409-4705
KOCFFAA ID OCF, AWOS-3, KOCF 231015Z AUTO 14004KT 10SM OVC006 21/19 A2999 RMK AO1 Follow KOCF on AV Mobile Ocala, Ocala International Airport-Jim Taylor Field 128.125 352-237-8525
KOBEFAA ID OBE, AWOS-3, KOBE 231015Z AUTO 00000KT 7SM CLR A3002 RMK AO2 Follow KOBE on AV Mobile Okeechobee County Airport 118.675 863-467-1148
KORLFAA ID ORL, ASOS, KORL 230956Z AUTO 15011KT 10SM SCT007 BKN033 BKN090 22/22 A3001 RMK AO2 T02220217 Follow KORL on AV Mobile ORLANDO EXECUTIVE AIRPORT 407-658-6753
KMCOFAA ID MCO, ASOS, KMCO 230953Z 14007KT 10SM FEW008 BKN038 OVC080 22/22 A3001 Follow KMCO on AV Mobile ORLANDO INTERNATIONAL AIRPORT 407-855-5235
KSFBFAA ID SFB, ASOS, KSFB 231013Z AUTO 16008KT 5SM -RA BR SCT007 BKN015 OVC030 22/21 A3001 Follow KSFB on AV Mobile ORLANDO SANFORD AIRPORT 407-321-9384
KISMFAA ID ISM, AWOS-3, KISM 230250Z 10008KT 7SM BKN075 OVC100 21/21 A3013 RMK LAST Follow KISM on AV Mobile Orlando, Kissimmee Municipal Airport 128.775 407-847-0533
KOMNFAA ID OMN, AWOS-3, KOMN 222350Z 10010G16KT 7SM BKN032 OVC037 22/17 A3017 RMK LAST Follow KOMN on AV Mobile Ormond Beach, Ormond Beach Municipal Airport 118.475 386-615-7084
28JFAA ID 28J, AWOS-3, KTEX 231040Z AUTO 26010G19KT 3SM -SN SCT005 BKN014 OVC026 M03/M04 A2984 RMK AO2 T10261044 Follow  on AV Mobile PALATKA 119.92 386-312-2212
KXFLFAA ID XFL, AWOS-3, KXFL 132150Z VRB03KT 7SM CLR 21/18 A2999 Follow KXFL on AV Mobile PALM COAST 128.325 386-437-7334
KECPFAA ID ECP, ASOS, KECP 231011Z AUTO 09005KT 10SM OVC008 19/18 A2988 RMK AO2 CIG 003V012 PNO $ Follow KECP on AV Mobile PANAMA CITY 119.975 850-235-7857
KPFNICAO ID KPFN, KPFN 030253Z VRB03KT 10SM FEW023 25/23 A2989 Follow KPFN on AV Mobile PANAMA CITY-BAY CTY INTERNATIONAL
KPAMFAA ID PAM, KPAM 231013Z AUTO 13016G23KT 10SM BKN013 BKN020 21/21 A2989 RMK AO2 CIG 013V020 $ Follow KPAM on AV Mobile Tyndall Air Force Base
KPNSFAA ID PNS, ASOS, KPNS 230953Z AUTO 11013G19KT 9SM OVC004 18/18 A2983 Follow KPNS on AV Mobile PENSACOLA REGIONAL AIRPORT 850-436-4799
KNPAFAA ID NPA, KNPA 230956Z AUTO 11016KT 4SM BR OVC006 20/19 A2981 RMK AO2 SLP097 T02000194 Follow KNPA on AV Mobile Pensacola, Naval Air Station
K40JFAA ID 40J, AWOS-3PT, K40J 231015Z AUTO 13011G14KT 5SM +RA BKN007 OVC014 20/19 A2996 RMK AO2 P0004 T01970193 Follow K40J on AV Mobile PERRY-FOLEY AIRPORT 118.375 850-838-3526
FA54FAA ID FA54, Belfort CORAL CREEK
KPCMFAA ID PCM, AWOS-3, KPCM 231015Z AUTO 14005KT 7SM OVC007 23/ A3002 RMK AO2 Follow KPCM on AV Mobile Plant City, Plant City Municipal Airport 120.025 813-764-8259
KPMPFAA ID PMP, ASOS, KPMP 230953Z 13014G22KT 8SM FEW020 FEW031 SCT040 26/22 A3001 RMK AO2 SLP164 T02560222 Follow KPMP on AV Mobile POMPANO BEACH AIRPARK 954-783-3720
K1J3ICAO ID K1J3 Ponce De Leon Inlet
KPGDFAA ID PGD, ASOS, KPGD 231003Z AUTO 14007KT 10SM SCT007 OVC019 23/22 A3001 RMK AO2 T02280217 $ Follow KPGD on AV Mobile PUNTA GORDA CHARLOTTE COUNTY 135.675 941-639-0076
K1J5ICAO ID K1J5 Santa Rosa Coast Guard Station
KSRQFAA ID SRQ, ASOS, KSRQ 230953Z 12010KT 10SM OVC011 22/21 A2997 Follow KSRQ on AV Mobile SARASOTA/BRADENTON INTERNATIONAL . 124.375 941-359-0117
KSEFFAA ID SEF, AWOS-3 SEBRING 119.475 863-655-6424
KSGJFAA ID SGJ, AWOS-3, KSGJ 231021Z AUTO 17007KT 5SM VCTS RA BR BKN005 OVC012 21/20 A3002 RMK AO2 TSE02B18 P0007 Follow KSGJ on AV Mobile St. Augustine, St. Augustine Airport 904-824-7084
KPIEFAA ID PIE, ASOS, KPIE 231021Z AUTO 13010KT 10SM OVC014 22/21 A2997 Follow KPIE on AV Mobile ST PETERSBURG/CLEARWATER 727-531-3456
KSPGFAA ID SPG, ASOS, KSPG 230953Z AUTO 14004KT 7SM BKN014 BKN020 OVC037 20/19 A2997 RMK AO2 SLP148 T02000189 Follow KSPG on AV Mobile ST PETERSBURG WHITTED AIRPORT 118.875 727-821-4334
KSUAFAA ID SUA, AWOS-3, KSUA 231015Z AUTO 14008KT 7SM BKN011 BKN018 OVC060 23/22 A3002 RMK AO2 Follow KSUA on AV Mobile Stuart, Witham Field Airport 772-692-7399
KTLHFAA ID TLH, ASOS, KTLH 230953Z AUTO 12011KT 10SM OVC008 21/18 A2993 Follow KTLH on AV Mobile TALLAHASSEE REGIONAL AIRPORT 850-576-3665
KTBWICAO ID KTBW Tampa Bay Area
KMCFFAA ID MCF, KMCF 230958Z AUTO 14006KT 10SM CLR 21/21 A2998 RMK AO2 SLP155 T02100210 Follow KMCF on AV Mobile Macdill Air Force Base, Fl.
KTPAFAA ID TPA, ASOS, KTPA 230953Z 14005KT 9SM SCT013 SCT024 BKN050 22/20 A2999 Follow KTPA on AV Mobile TAMPA INTERNATIONAL AIRPORT 813-873-7228
KTPFFAA ID TPF, AWOS-3, KTPF 231015Z AUTO 14008KT 10SM BKN010 BKN023 OVC046 23/21 A2999 RMK AO2 Follow KTPF on AV Mobile Tampa, Peter O Knight Airport 118.925 813-251-6824
KVDFFAA ID VDF, AWOS-3, KVDF 231015Z AUTO 16005KT 10SM OVC010 23/21 A3000 RMK AO2 Follow KVDF on AV Mobile Tampa, Vandenberg Airport 121.125 813-630-0924
KVLGICAO ID KVLG The Villages
KVVGICAO ID KVVG, KVVG 231015Z AUTO 12008G14KT 10SM 21/21 A2990 RMK A01 Follow KVVG on AV Mobile The Villages
KX68ICAO ID KX68 Titusville, NASA Shuttle Landing Facility
KTIXFAA ID TIX, KTIX 212350Z 04007KT 7SM BKN110 20/14 A3026 Follow KTIX on AV Mobile Titusville
KX21FAA ID X21, AWOS-3 Titusville, Arthur Dunn Air Park 119.725 321-385-0383
KTTSFAA ID TTS, KTTS 230958Z AUTO 11011G20KT 10SM OVC032 22/18 A3015 RMK AO2 SLP213 Follow KTTS on AV Mobile Titusville, NASA Shuttle Landing Facility
KVPSFAA ID VPS, KVPS 230955Z 13015G19KT 4SM BR OVC003 18/18 A2986 RMK AO2A SLP118 T01840179 $ Follow KVPS on AV Mobile Valparaiso / Eglin Air Force Base
KVNCFAA ID VNC, AWOS-3, KVNC 231015Z AUTO 13011G15KT 10SM SCT009 23/22 A2998 RMK AO2 TSNO Follow KVNC on AV Mobile VENICE 119.275
KX90ICAO ID KX90 Venice Long Range Navigation
KVRBFAA ID VRB, ASOS, KVRB 230953Z AUTO 12015KT 10SM SCT019 BKN028 OVC045 22/19 A3002 Follow KVRB on AV Mobile VERO BEACH MUNICIPAL AIRPORT 772-978-9535
F45FAA ID F45, AWOS-3, KTEX 231040Z AUTO 26010G19KT 3SM -SN SCT005 BKN014 OVC026 M03/M04 A2984 RMK AO2 T10261044 Follow  on AV Mobile WEST PALM BEACH 119.975 561-630-6932
KLNAFAA ID LNA, AWOS-3 WEST PALM BEACH 119.925 561-964-0308
KPBIFAA ID PBI, ASOS, KPBI 230953Z 13014KT 10SM FEW020 FEW034 BKN050 26/22 A3001 Follow KPBI on AV Mobile PALM BEACH INTERNATIONAL 123.75 561-683-2548
FD38FAA ID FD38, Belfort WELLINGTON AERO CLUB
X60FAA ID X60, AWOS-3, KTEX 231040Z AUTO 26010G19KT 3SM -SN SCT005 BKN014 OVC026 M03/M04 A2984 RMK AO2 T10261044 Follow  on AV Mobile WILLISTON 118.425 352-528-9949
KGIFFAA ID GIF, ASOS, KGIF 231005Z AUTO 13006KT 10SM FEW007 SCT018 OVC060 22/21 A3002 RMK AO2 T02170211 Follow KGIF on AV Mobile WINTER HAVENS GILBERT AIRPORT 133.675 863-956-2097
KZPHFAA ID ZPH, ASOS, KZPH 231015Z AUTO 00000KT 10SM OVC009 21/20 A3000 RMK AO2 Follow KZPH on AV Mobile ZEPHYRHILLS 118.975 813-780-0031

Click on the AV Mobile icon AV Mobile icon by any station to follow that AWOS feed on AirportView.net Mobile.

Garmin aera 796 $1999 at Avionics Specialists LLC
Bose A20 Aviation Headsets $995 at Avionics Specialists LLC